createdAt,value
2019-04-10T00:01:06.326Z,62.16
2019-04-10T00:03:37.333Z,61.50
2019-04-10T00:06:04.598Z,61.63
2019-04-10T00:08:33.182Z,62.40
2019-04-10T00:11:02.661Z,62.21
2019-04-10T00:13:31.370Z,62.17
2019-04-10T00:15:59.793Z,62.16
2019-04-10T00:18:28.268Z,62.05
2019-04-10T00:20:56.846Z,62.69
2019-04-10T00:23:25.268Z,62.70
2019-04-10T00:25:53.751Z,62.21
2019-04-10T00:28:23.302Z,62.52
2019-04-10T00:30:51.912Z,62.68
2019-04-10T00:33:20.763Z,62.77
2019-04-10T00:35:49.882Z,62.73
2019-04-10T00:38:19.546Z,62.81
2019-04-10T00:40:48.242Z,63.02
2019-04-10T00:43:17.052Z,62.73
2019-04-10T00:45:45.988Z,63.55
2019-04-10T00:48:15.193Z,63.31
2019-04-10T00:50:44.584Z,63.24
2019-04-10T00:53:13.128Z,63.26
2019-04-10T00:55:41.525Z,63.96
2019-04-10T00:58:10.058Z,63.82
2019-04-10T01:00:39.207Z,63.15
2019-04-10T01:03:07.831Z,64.44
2019-04-10T01:05:36.244Z,64.27
2019-04-10T01:08:04.794Z,63.33
2019-04-10T01:10:33.275Z,64.53
2019-04-10T01:13:02.716Z,64.25
2019-04-10T01:15:31.238Z,64.30
2019-04-10T01:17:59.652Z,64.00
2019-04-10T01:20:28.042Z,64.45
2019-04-10T01:22:57.362Z,63.77
2019-04-10T01:25:26.214Z,64.02
2019-04-10T01:27:54.664Z,64.54
2019-04-10T01:30:23.072Z,64.76
2019-04-10T01:32:52.316Z,63.70
2019-04-10T01:35:20.757Z,65.24
2019-04-10T01:37:54.614Z,64.71
2019-04-10T01:40:20.739Z,64.02
2019-04-10T01:43:02.778Z,63.76
2019-04-10T01:45:19.663Z,65.04
2019-04-10T01:47:48.067Z,64.86
2019-04-10T01:50:16.478Z,65.01
2019-04-10T01:52:45.005Z,65.48
2019-04-10T01:55:20.047Z,65.16
2019-04-10T01:57:44.214Z,64.98
2019-04-10T02:00:15.247Z,64.60
2019-04-10T02:02:45.488Z,64.83
2019-04-10T02:05:14.498Z,64.80
2019-04-10T02:07:42.944Z,65.40
2019-04-10T02:10:12.077Z,64.82
2019-04-10T02:12:40.989Z,65.11
2019-04-10T02:15:13.909Z,65.81
2019-04-10T02:17:41.055Z,64.88
2019-04-10T02:20:10.547Z,65.03
2019-04-10T02:22:39.091Z,65.54
2019-04-10T02:25:07.840Z,65.67
2019-04-10T02:27:36.324Z,65.49
2019-04-10T02:30:09.531Z,65.40
2019-04-10T02:32:39.205Z,64.74
2019-04-10T02:35:10.628Z,65.32
2019-04-10T02:37:39.594Z,64.92
2019-04-10T02:40:10.133Z,64.62
2019-04-10T02:42:40.714Z,65.46
2019-04-10T02:45:10.255Z,65.29
2019-04-10T02:47:39.084Z,64.56
2019-04-10T02:50:09.515Z,66.14
2019-04-10T02:52:39.009Z,64.55
2019-04-10T02:55:09.885Z,64.91
2019-04-10T02:57:39.058Z,65.34
2019-04-10T03:00:08.627Z,66.01
2019-04-10T03:02:38.669Z,65.99
2019-04-10T03:05:09.370Z,65.71
2019-04-10T03:07:40.092Z,65.65
2019-04-10T03:10:23.259Z,65.24
2019-04-10T03:12:40.977Z,65.33
2019-04-10T03:15:12.357Z,65.23
2019-04-10T03:17:40.267Z,65.18
2019-04-10T03:20:09.907Z,65.46
2019-04-10T03:22:38.442Z,65.85
2019-04-10T03:25:07.274Z,66.11
2019-04-10T03:27:36.532Z,65.77
2019-04-10T03:30:07.566Z,65.87
2019-04-10T03:32:50.420Z,66.14
2019-04-10T03:35:28.133Z,65.56
2019-04-10T03:37:57.401Z,65.89
2019-04-10T03:40:25.813Z,65.43
2019-04-10T03:42:55.089Z,65.87
2019-04-10T03:45:24.356Z,65.89
2019-04-10T03:47:52.919Z,65.65
2019-04-10T03:50:21.606Z,65.67
2019-04-10T03:52:50.028Z,65.23
2019-04-10T03:55:18.897Z,66.10
2019-04-10T03:57:47.437Z,65.57
2019-04-10T04:00:16.253Z,65.85
2019-04-10T04:02:44.732Z,65.60
2019-04-10T04:05:13.317Z,65.98
2019-04-10T04:07:41.736Z,65.70
2019-04-10T04:10:10.870Z,66.24
2019-04-10T04:12:39.406Z,65.72
2019-04-10T04:15:07.881Z,66.31
2019-04-10T04:17:36.303Z,66.34
2019-04-10T04:20:05.243Z,65.73
2019-04-10T04:22:33.897Z,65.99
2019-04-10T04:25:02.503Z,65.93
2019-04-10T04:27:30.892Z,65.81
2019-04-10T04:29:59.639Z,66.76
2019-04-10T04:32:29.299Z,66.73
2019-04-10T04:34:57.809Z,66.12
2019-04-10T04:37:26.225Z,66.24
2019-04-10T04:39:54.648Z,66.92
2019-04-10T04:42:23.089Z,66.65
2019-04-10T04:44:52.104Z,66.87
2019-04-10T04:47:20.666Z,66.89
2019-04-10T04:49:50.034Z,67.54
2019-04-10T04:52:18.697Z,66.77
2019-04-10T04:54:47.753Z,67.23
2019-04-10T04:57:17.004Z,67.03
2019-04-10T04:59:45.503Z,67.43
2019-04-10T05:02:14.350Z,67.99
2019-04-10T05:04:43.816Z,66.96
2019-04-10T05:07:13.384Z,67.49
2019-04-10T05:09:42.254Z,67.62
2019-04-10T05:12:11.326Z,67.55
2019-04-10T05:14:39.974Z,67.52
2019-04-10T05:17:08.348Z,68.57
2019-04-10T05:19:36.763Z,67.78
2019-04-10T05:22:06.016Z,68.06
2019-04-10T05:24:34.570Z,67.83
2019-04-10T05:27:03.019Z,68.18
2019-04-10T05:29:31.433Z,68.64
2019-04-10T05:32:00.927Z,68.44
2019-04-10T05:34:29.619Z,68.33
2019-04-10T05:36:58.832Z,68.61
2019-04-10T05:39:39.183Z,68.61
2019-04-10T05:41:57.556Z,68.62
2019-04-10T05:44:25.994Z,68.67
2019-04-10T05:46:54.845Z,69.12
2019-04-10T05:49:23.336Z,68.50
2019-04-10T05:51:51.736Z,69.39
2019-04-10T05:54:20.154Z,68.61
2019-04-10T05:56:48.560Z,69.03
2019-04-10T05:59:17.140Z,69.00
2019-04-10T06:01:45.749Z,69.20
2019-04-10T06:04:14.107Z,69.26
2019-04-10T06:06:42.560Z,69.67
2019-04-10T06:09:12.187Z,69.33
2019-04-10T06:11:44.019Z,69.16
2019-04-10T06:14:11.529Z,69.15
2019-04-10T06:16:40.564Z,69.16
2019-04-10T06:19:09.506Z,69.47
2019-04-10T06:21:38.077Z,69.34
2019-04-10T06:24:07.784Z,68.90
2019-04-10T06:26:37.489Z,69.08
2019-04-10T06:29:06.527Z,69.44
2019-04-10T06:31:35.108Z,69.43
2019-04-10T06:34:04.628Z,69.55
2019-04-10T06:36:33.444Z,69.45
2019-04-10T06:39:02.686Z,69.35
2019-04-10T06:41:31.294Z,69.64
2019-04-10T06:43:59.702Z,69.20
2019-04-10T06:46:28.515Z,69.19
2019-04-10T06:48:58.731Z,68.64
2019-04-10T06:51:27.278Z,69.13
2019-04-10T06:54:03.275Z,69.26
2019-04-10T06:56:25.783Z,69.34
2019-04-10T06:58:54.212Z,69.37
2019-04-10T07:01:24.519Z,68.81
2019-04-10T07:04:00.986Z,69.19
2019-04-10T07:06:35.848Z,68.74
2019-04-10T07:08:53.483Z,68.12
2019-04-10T07:11:25.265Z,68.46
2019-04-10T07:13:53.788Z,68.51
2019-04-10T07:16:22.295Z,68.69
2019-04-10T07:18:51.901Z,68.35
2019-04-10T07:21:20.503Z,68.26
2019-04-10T07:23:49.063Z,68.55
2019-04-10T07:26:27.610Z,68.10
2019-04-10T07:28:48.970Z,68.34
2019-04-10T07:31:17.832Z,68.51
2019-04-10T07:33:50.081Z,68.49
2019-04-10T07:36:16.407Z,68.46
2019-04-10T07:38:44.901Z,67.85
2019-04-10T07:41:19.394Z,67.74
2019-04-10T07:43:44.675Z,68.08
2019-04-10T07:46:13.235Z,67.52
2019-04-10T07:48:41.642Z,67.34
2019-04-10T07:51:11.216Z,67.78
2019-04-10T07:53:39.782Z,67.46
2019-04-10T07:56:13.638Z,67.09
2019-04-10T07:58:38.409Z,67.45
2019-04-10T08:01:07.879Z,66.56
2019-04-10T08:03:37.393Z,67.37
2019-04-10T08:06:06.737Z,66.90
2019-04-10T08:08:36.202Z,67.17
2019-04-10T08:11:05.060Z,66.02
2019-04-10T08:13:33.647Z,66.25
2019-04-10T08:16:02.860Z,65.97
2019-04-10T08:18:31.719Z,65.73
2019-04-10T08:21:00.170Z,65.73
2019-04-10T08:23:28.586Z,65.92
2019-04-10T08:25:58.002Z,66.45
2019-04-10T08:28:30.223Z,65.52
2019-04-10T08:30:57.535Z,65.52
2019-04-10T08:33:26.339Z,65.31
2019-04-10T08:35:54.853Z,65.19
2019-04-10T08:38:23.992Z,65.11
2019-04-10T08:40:52.531Z,65.10
2019-04-10T08:43:20.959Z,65.16
2019-04-10T08:45:52.060Z,64.76
2019-04-10T08:48:19.801Z,64.32
2019-04-10T08:50:48.229Z,64.30
2019-04-10T08:53:16.609Z,63.93
2019-04-10T08:55:45.995Z,64.39
2019-04-10T08:58:14.628Z,63.40
2019-04-10T09:00:43.064Z,64.04
2019-04-10T09:03:11.477Z,63.61
2019-04-10T09:05:39.896Z,63.65
2019-04-10T09:08:08.610Z,63.72
2019-04-10T09:10:37.040Z,63.38
2019-04-10T09:13:06.287Z,63.00
2019-04-10T09:15:36.046Z,62.16
2019-04-10T09:18:04.625Z,62.80
2019-04-10T09:20:33.162Z,62.12
2019-04-10T09:23:35.127Z,62.06
2019-04-10T09:25:31.746Z,62.43
2019-04-10T09:28:00.270Z,62.53
2019-04-10T09:30:28.993Z,62.57
2019-04-10T09:32:57.527Z,62.05
2019-04-10T09:35:26.691Z,61.48
2019-04-10T09:37:55.175Z,60.58
2019-04-10T09:40:24.490Z,61.26
2019-04-10T09:42:52.948Z,60.06
2019-04-10T09:45:22.284Z,59.26
2019-04-10T09:47:52.316Z,58.76
2019-04-10T09:50:21.349Z,59.04
2019-04-10T09:52:50.371Z,58.91
2019-04-10T09:55:19.932Z,58.65
2019-04-10T09:57:49.559Z,59.52
2019-04-10T10:00:19.172Z,60.51
2019-04-10T10:02:47.679Z,59.59
2019-04-10T10:05:16.416Z,59.49
2019-04-10T10:07:45.174Z,59.19
2019-04-10T10:10:15.066Z,57.96
2019-04-10T10:12:43.635Z,59.24
2019-04-10T10:15:13.442Z,59.41
2019-04-10T10:17:41.879Z,58.19
2019-04-10T10:20:11.541Z,58.61
2019-04-10T10:22:41.143Z,56.23
2019-04-10T10:25:11.160Z,55.89
2019-04-10T10:27:40.735Z,57.29
2019-04-10T10:30:11.514Z,55.68
2019-04-10T10:32:42.129Z,55.55
2019-04-10T10:35:11.327Z,56.04
2019-04-10T10:37:40.941Z,56.53
2019-04-10T10:40:10.268Z,56.87
2019-04-10T10:42:40.985Z,57.24
2019-04-10T10:45:10.492Z,55.95
2019-04-10T10:47:40.395Z,55.50
2019-04-10T10:50:09.779Z,55.08
2019-04-10T10:52:38.269Z,53.29
2019-04-10T10:55:07.691Z,53.56
2019-04-10T10:57:37.363Z,52.33
2019-04-10T11:00:08.329Z,53.06
2019-04-10T11:02:37.996Z,53.41
2019-04-10T11:05:07.206Z,53.81
2019-04-10T11:07:35.767Z,53.32
2019-04-10T11:10:06.963Z,53.10
2019-04-10T11:12:35.792Z,52.52
2019-04-10T11:15:06.043Z,52.96
2019-04-10T11:17:35.717Z,51.45
2019-04-10T11:20:08.086Z,51.24
2019-04-10T11:22:37.698Z,51.65
2019-04-10T11:25:07.951Z,51.93
2019-04-10T11:27:36.537Z,51.59
2019-04-10T11:30:08.441Z,51.28
2019-04-10T11:32:38.030Z,52.42
2019-04-10T11:35:07.662Z,51.57
2019-04-10T11:37:43.826Z,52.46
2019-04-10T11:42:39.755Z,52.28
2019-04-10T11:45:10.674Z,51.43
2019-04-10T11:47:39.602Z,51.64
2019-04-10T11:50:13.395Z,52.83
2019-04-10T11:52:44.849Z,52.28
2019-04-10T11:55:13.716Z,52.06
2019-04-10T11:57:41.758Z,52.23
2019-04-10T12:00:12.243Z,51.43
2019-04-10T12:02:43.987Z,50.11
2019-04-10T12:05:14.879Z,50.58
2019-04-10T12:08:08.910Z,50.76
2019-04-10T12:12:41.743Z,50.46
2019-04-10T12:15:10.417Z,51.06
2019-04-10T12:17:38.841Z,51.14
2019-04-10T12:20:07.610Z,50.84
2019-04-10T12:22:36.096Z,50.61
2019-04-10T12:25:06.962Z,49.18
2019-04-10T12:27:35.451Z,49.77
2019-04-10T12:30:06.856Z,49.08
2019-04-10T12:32:35.402Z,47.73
2019-04-10T12:35:05.458Z,46.99
2019-04-10T12:37:34.978Z,46.31
2019-04-10T12:40:05.508Z,48.41
2019-04-10T12:42:34.581Z,45.72
2019-04-10T12:45:04.820Z,43.64
2019-04-10T12:47:34.241Z,42.83
2019-04-10T12:50:03.785Z,45.23
2019-04-10T12:52:32.436Z,42.59
2019-04-10T12:55:01.921Z,42.62
2019-04-10T12:57:30.755Z,42.36
2019-04-10T13:00:03.690Z,42.26
2019-04-10T13:02:30.313Z,42.10
2019-04-10T13:04:58.822Z,41.70
2019-04-10T13:07:27.590Z,40.42
2019-04-10T13:09:56.147Z,42.42
2019-04-10T13:12:25.061Z,43.26
2019-04-10T13:14:53.467Z,41.48
2019-04-10T13:17:22.696Z,41.18
2019-04-10T13:19:51.474Z,39.26
2019-04-10T13:22:20.152Z,41.78
2019-04-10T13:24:48.562Z,41.16
2019-04-10T13:27:16.986Z,42.10
2019-04-10T13:29:45.381Z,41.31
2019-04-10T13:32:13.951Z,41.90
2019-04-10T13:34:42.298Z,41.87
2019-04-10T13:37:10.790Z,40.04
2019-04-10T13:39:39.284Z,41.32
2019-04-10T13:42:07.933Z,40.66
2019-04-10T13:44:36.533Z,39.96
2019-04-10T13:47:05.067Z,39.61
2019-04-10T13:49:33.760Z,39.56
2019-04-10T13:52:02.297Z,41.69
2019-04-10T13:54:30.736Z,40.38
2019-04-10T13:56:59.377Z,38.18
2019-04-10T13:59:28.934Z,40.88
2019-04-10T14:01:58.478Z,40.59
2019-04-10T14:04:27.207Z,39.86
2019-04-10T14:06:57.720Z,42.00
2019-04-10T14:09:38.004Z,39.19
2019-04-10T14:11:57.580Z,38.88
2019-04-10T14:14:26.712Z,39.52
2019-04-10T14:16:55.189Z,37.95
2019-04-10T14:19:23.760Z,38.69
2019-04-10T14:21:53.392Z,38.97
2019-04-10T14:24:22.227Z,38.92
2019-04-10T14:26:54.919Z,38.89
2019-04-10T14:29:22.707Z,38.26
2019-04-10T14:31:53.209Z,39.33
2019-04-10T14:34:22.860Z,40.28
2019-04-10T14:36:51.349Z,40.77
2019-04-10T14:39:21.348Z,41.74
2019-04-10T14:41:50.086Z,41.26
2019-04-10T14:44:18.847Z,41.81
2019-04-10T14:46:47.377Z,41.23
2019-04-10T14:49:16.783Z,41.85
2019-04-10T14:51:46.137Z,42.26
2019-04-10T14:54:15.575Z,42.48
2019-04-10T14:56:44.305Z,42.50
2019-04-10T14:59:12.858Z,41.69
2019-04-10T15:01:42.031Z,43.00
2019-04-10T15:04:10.983Z,43.10
2019-04-10T15:06:40.062Z,42.91
2019-04-10T15:09:20.830Z,43.43
2019-04-10T15:11:42.579Z,43.23
2019-04-10T15:14:11.055Z,43.54
2019-04-10T15:16:39.485Z,43.88
2019-04-10T15:19:08.035Z,43.78
2019-04-10T15:21:36.689Z,43.98
2019-04-10T15:24:05.380Z,43.34
2019-04-10T15:26:33.850Z,43.81
2019-04-10T15:29:02.270Z,42.82
2019-04-10T15:31:31.226Z,44.07
2019-04-10T15:33:59.739Z,42.66
2019-04-10T15:36:28.437Z,43.45
2019-04-10T15:38:58.796Z,42.73
2019-04-10T15:41:27.415Z,42.75
2019-04-10T15:43:55.773Z,43.72
2019-04-10T15:46:24.786Z,43.75
2019-04-10T15:48:53.293Z,41.83
2019-04-10T15:51:22.430Z,43.01
2019-04-10T15:53:51.416Z,43.31
2019-04-10T15:56:20.456Z,43.40
2019-04-10T15:58:49.946Z,43.50
2019-04-10T16:01:19.958Z,43.14
2019-04-10T16:03:48.360Z,43.77
2019-04-10T16:06:17.500Z,43.69
2019-04-10T16:08:46.068Z,44.37
2019-04-10T16:11:19.475Z,43.50
2019-04-10T16:13:49.563Z,44.13
2019-04-10T16:16:23.299Z,44.05
2019-04-10T16:18:53.452Z,43.90
2019-04-10T16:21:21.854Z,43.53
2019-04-10T16:24:10.425Z,44.33
2019-04-10T16:26:39.206Z,43.54
2019-04-10T16:29:07.681Z,43.52
2019-04-10T16:31:36.140Z,43.07
2019-04-10T16:34:05.162Z,44.54
2019-04-10T16:36:33.565Z,43.24
2019-04-10T16:39:02.966Z,44.37
2019-04-10T16:41:31.505Z,44.10
2019-04-10T16:44:00.543Z,44.46
2019-04-10T16:46:29.876Z,44.88
2019-04-10T16:48:58.420Z,44.22
2019-04-10T16:51:28.043Z,43.39
2019-04-10T16:53:56.588Z,44.91
2019-04-10T16:56:25.422Z,44.29
2019-04-10T16:58:54.219Z,44.43
2019-04-10T17:01:23.576Z,45.82
2019-04-10T17:03:52.300Z,44.58
2019-04-10T17:06:21.714Z,45.06
2019-04-10T17:08:50.487Z,44.96
2019-04-10T17:11:19.141Z,45.41
2019-04-10T17:13:48.833Z,45.23
2019-04-10T17:16:21.850Z,45.40
2019-04-10T17:18:50.244Z,45.75
2019-04-10T17:21:19.905Z,45.93
2019-04-10T17:23:49.097Z,46.34
2019-04-10T17:26:18.983Z,44.66
2019-04-10T17:28:48.346Z,45.27
2019-04-10T17:31:18.149Z,46.23
2019-04-10T17:33:46.874Z,45.99
2019-04-10T17:36:15.379Z,46.37
2019-04-10T17:38:44.921Z,46.62
2019-04-10T17:41:13.583Z,46.52
2019-04-10T17:43:43.358Z,46.04
2019-04-10T17:46:13.127Z,46.80
2019-04-10T17:48:42.031Z,45.98
2019-04-10T17:51:11.992Z,46.18
2019-04-10T17:53:41.861Z,46.04
2019-04-10T17:56:11.517Z,46.46
2019-04-10T17:58:41.388Z,47.02
2019-04-10T18:01:12.541Z,48.36
2019-04-10T18:03:50.244Z,47.21
2019-04-10T18:06:11.534Z,48.25
2019-04-10T18:08:40.993Z,47.53
2019-04-10T18:11:09.549Z,47.56
2019-04-10T18:13:38.486Z,48.12
2019-04-10T18:16:07.002Z,47.48
2019-04-10T18:18:35.936Z,49.33
2019-04-10T18:21:04.656Z,48.18
2019-04-10T18:23:33.597Z,47.85
2019-04-10T18:26:02.462Z,48.46
2019-04-10T18:28:33.466Z,48.83
2019-04-10T18:31:01.348Z,49.40
2019-04-10T18:33:30.913Z,49.10
2019-04-10T18:35:59.552Z,49.31
2019-04-10T18:38:27.990Z,50.67
2019-04-10T18:41:02.035Z,49.80
2019-04-10T18:43:27.049Z,50.49
2019-04-10T18:46:06.165Z,49.65
2019-04-10T18:48:26.773Z,49.53
2019-04-10T18:50:55.490Z,50.60
2019-04-10T18:53:24.765Z,49.64
2019-04-10T18:55:54.494Z,50.43
2019-04-10T18:58:25.589Z,50.49
2019-04-10T19:01:13.930Z,50.93
2019-04-10T19:03:50.149Z,50.82
2019-04-10T19:06:24.667Z,50.95
2019-04-10T19:09:04.953Z,51.31
2019-04-10T19:11:26.793Z,50.51
2019-04-10T19:13:53.623Z,52.01
2019-04-10T19:16:23.502Z,51.41
2019-04-10T19:18:52.262Z,51.82
2019-04-10T19:21:21.830Z,51.17
2019-04-10T19:23:50.389Z,51.33
2019-04-10T19:26:21.057Z,52.31
2019-04-10T19:28:50.535Z,52.15
2019-04-10T19:31:23.820Z,52.19
2019-04-10T19:33:51.202Z,52.29
2019-04-10T19:36:19.773Z,52.90
2019-04-10T19:38:48.182Z,52.41
2019-04-10T19:41:25.203Z,51.97
2019-04-10T19:43:46.943Z,52.09
2019-04-10T19:46:15.463Z,52.51
2019-04-10T19:48:43.853Z,53.57
2019-04-10T19:51:12.397Z,51.97
2019-04-10T19:53:41.558Z,52.88
2019-04-10T19:56:10.937Z,53.20
2019-04-10T19:58:39.422Z,52.71
2019-04-10T20:01:08.783Z,52.74
2019-04-10T20:03:37.518Z,53.58
2019-04-10T20:06:06.182Z,53.28
2019-04-10T20:08:35.588Z,53.05
2019-04-10T20:11:04.538Z,52.98
2019-04-10T20:13:32.946Z,54.20
2019-04-10T20:16:02.665Z,54.07
2019-04-10T20:18:31.444Z,53.16
2019-04-10T20:20:59.887Z,54.66
2019-04-10T20:23:28.426Z,55.82
2019-04-10T20:25:56.946Z,55.06
2019-04-10T20:28:26.617Z,54.33
2019-04-10T20:30:56.742Z,54.81
2019-04-10T20:33:25.405Z,53.59
2019-04-10T20:35:53.813Z,53.83
2019-04-10T20:38:23.119Z,53.72
2019-04-10T20:40:51.963Z,54.28
2019-04-10T20:43:20.631Z,54.24
2019-04-10T20:45:49.670Z,54.14
2019-04-10T20:48:18.244Z,53.50
2019-04-10T20:50:46.675Z,54.23
2019-04-10T20:53:15.896Z,54.18
2019-04-10T20:55:44.384Z,52.94
2019-04-10T20:58:13.402Z,52.44
2019-04-10T21:00:43.081Z,51.94
2019-04-10T21:03:11.648Z,53.13
2019-04-10T21:05:40.248Z,52.77
2019-04-10T21:08:09.482Z,53.71
2019-04-10T21:10:38.689Z,53.57
2019-04-10T21:13:08.467Z,53.33
2019-04-10T21:15:37.619Z,53.02
2019-04-10T21:18:06.900Z,52.80
2019-04-10T21:20:36.524Z,52.65
2019-04-10T21:23:05.532Z,53.50
2019-04-10T21:25:35.048Z,53.91
2019-04-10T21:28:04.684Z,53.28
2019-04-10T21:30:51.259Z,52.81
2019-04-10T21:33:24.684Z,53.17
2019-04-10T21:35:54.097Z,53.58
2019-04-10T21:38:23.579Z,53.40
2019-04-10T21:40:52.125Z,53.82
2019-04-10T21:43:21.474Z,54.41
2019-04-10T21:45:50.176Z,53.34
2019-04-10T21:48:18.906Z,53.58
2019-04-10T21:50:47.360Z,52.64
2019-04-10T21:53:16.454Z,52.87
2019-04-10T21:55:46.483Z,52.78
2019-04-10T21:58:14.901Z,54.38
2019-04-10T22:00:51.212Z,53.38
2019-04-10T22:03:20.967Z,53.55
2019-04-10T22:06:06.071Z,55.31
2019-04-10T22:08:39.396Z,53.52
2019-04-10T22:11:08.547Z,53.96
2019-04-10T22:13:38.031Z,54.44
2019-04-10T22:16:09.335Z,54.81
2019-04-10T22:18:38.023Z,55.29
2019-04-10T22:21:06.570Z,54.42
2019-04-10T22:23:34.970Z,54.89
2019-04-10T22:26:04.278Z,55.89
2019-04-10T22:28:32.898Z,55.54
2019-04-10T22:31:02.320Z,56.03
2019-04-10T22:33:30.772Z,55.75
2019-04-10T22:36:00.190Z,55.59
2019-04-10T22:38:29.351Z,55.39
2019-04-10T22:40:58.097Z,55.08
2019-04-10T22:43:26.572Z,57.01
2019-04-10T22:45:55.049Z,55.48
2019-04-10T22:48:23.519Z,56.03
2019-04-10T22:50:52.134Z,55.97
2019-04-10T22:53:21.366Z,56.00
2019-04-10T22:55:50.661Z,56.76
2019-04-10T22:58:19.183Z,56.36
2019-04-10T23:00:48.452Z,56.24
2019-04-10T23:03:18.096Z,56.31
2019-04-10T23:05:46.891Z,56.48
2019-04-10T23:08:15.643Z,56.45
2019-04-10T23:10:45.301Z,57.75
2019-04-10T23:13:14.098Z,56.57
2019-04-10T23:15:43.895Z,56.16
2019-04-10T23:18:13.030Z,56.78
2019-04-10T23:20:41.802Z,57.20
2019-04-10T23:23:10.628Z,57.58
2019-04-10T23:25:39.109Z,56.54
2019-04-10T23:28:07.564Z,57.49
2019-04-10T23:30:37.085Z,57.55
2019-04-10T23:33:05.998Z,56.88
2019-04-10T23:35:35.708Z,57.68
2019-04-10T23:38:04.237Z,57.73
2019-04-10T23:40:32.806Z,58.53
2019-04-10T23:43:09.659Z,58.01
2019-04-10T23:45:31.532Z,59.21
2019-04-10T23:48:00.343Z,59.42
2019-04-10T23:50:28.895Z,59.41
2019-04-10T23:52:58.328Z,60.30
2019-04-10T23:55:26.805Z,59.03
2019-04-10T23:57:55.871Z,59.30
